Airport View

Enter AWOS ICAO identifier for current METAR.

ex. KFNL

KGOP 191915Z AUTO 16009G17KT 10SM CLR 35/23 A2980 RMK AO2

19 Jun 2019 19:24

Frequency: 119.725

Phone: 254-865-6742

Other Area AWOS: KHLR - KILE - KGRK - KMNZ

TAF KGRK 191707Z 1917/2022 18012G20KT 9999 SCT030 QNH2979INS TEMPO 1920/1923 17015G25KT BECMG 1923/1924 18012KT 9999 SCT040 QNH2972INS BECMG 2001/2002 18012KT 8000 -SHRA SCT040 QNH2973INS TEMPO 2002/2006 27025G45KT 6000 -TSRAGR BKN040CB BECMG 2006/2007 VRB06KT 9999 NSW SKC QNH2978INS BECMG 2014/2015 19012G20KT 9999 FEW020 QNH2973INS TX37/1921Z TN24/2011Z